createdAt,value
2019-04-07T00:00:28.574Z,288.20
2019-04-07T00:01:29.049Z,287.85
2019-04-07T00:02:29.254Z,288.20
2019-04-07T00:03:29.635Z,287.92
2019-04-07T00:04:30.617Z,288.52
2019-04-07T00:05:30.318Z,288.47
2019-04-07T00:06:30.727Z,288.05
2019-04-07T00:07:31.080Z,288.42
2019-04-07T00:08:31.533Z,288.29
2019-04-07T00:09:32.061Z,288.90
2019-04-07T00:10:32.132Z,288.20
2019-04-07T00:11:32.524Z,288.10
2019-04-07T00:12:32.864Z,288.85
2019-04-07T00:13:33.689Z,288.02
2019-04-07T00:14:33.614Z,287.62
2019-04-07T00:15:34.468Z,288.43
2019-04-07T00:16:34.443Z,288.52
2019-04-07T00:17:34.669Z,288.05
2019-04-07T00:18:35.036Z,288.00
2019-04-07T00:19:35.391Z,288.35
2019-04-07T00:20:36.310Z,288.55
2019-04-07T00:21:36.427Z,288.62
2019-04-07T00:22:36.789Z,287.92
2019-04-07T00:23:36.841Z,287.72
2019-04-07T00:24:37.252Z,288.14
2019-04-07T00:25:37.526Z,288.27
2019-04-07T00:26:37.903Z,289.20
2019-04-07T00:27:38.230Z,288.37
2019-04-07T00:28:38.626Z,287.89
2019-04-07T00:29:39.499Z,288.46
2019-04-07T00:30:39.909Z,287.94
2019-04-07T00:31:39.841Z,288.04
2019-04-07T00:32:40.073Z,288.33
2019-04-07T00:33:40.407Z,287.79
2019-04-07T00:34:41.457Z,288.09
2019-04-07T00:35:41.135Z,288.05
2019-04-07T00:36:41.975Z,287.73
2019-04-07T00:37:41.879Z,288.08
2019-04-07T00:38:42.258Z,287.96
2019-04-07T00:39:42.594Z,288.28
2019-04-07T00:40:42.994Z,287.91
2019-04-07T00:41:43.397Z,288.58
2019-04-07T00:42:43.686Z,288.09
2019-04-07T00:43:44.570Z,288.34
2019-04-07T00:44:45.477Z,287.91
2019-04-07T00:45:44.784Z,288.96
2019-04-07T00:46:45.148Z,289.51
2019-04-07T00:47:46.101Z,289.35
2019-04-07T00:48:45.889Z,288.42
2019-04-07T00:49:46.573Z,289.29
2019-04-07T00:50:46.987Z,288.24
2019-04-07T00:51:47.465Z,289.43
2019-04-07T00:52:47.315Z,288.40
2019-04-07T00:53:47.681Z,288.48
2019-04-07T00:54:48.032Z,288.70
2019-04-07T00:55:48.493Z,288.44
2019-04-07T00:56:49.074Z,288.26
2019-04-07T00:57:49.189Z,287.76
2019-04-07T00:58:49.959Z,288.25
2019-04-07T00:59:50.557Z,288.33
2019-04-07T01:00:50.510Z,287.82
2019-04-07T01:01:50.536Z,288.13
2019-04-07T01:02:50.910Z,288.07
2019-04-07T01:03:51.276Z,287.90
2019-04-07T01:04:51.820Z,287.92
2019-04-07T01:05:52.177Z,288.33
2019-04-07T01:06:52.686Z,287.94
2019-04-07T01:07:52.701Z,288.12
2019-04-07T01:08:53.654Z,288.42
2019-04-07T01:09:53.418Z,287.79
2019-04-07T01:10:53.755Z,288.24
2019-04-07T01:11:54.116Z,288.01
2019-04-07T01:12:54.485Z,288.09
2019-04-07T01:13:55.472Z,288.31
2019-04-07T01:14:55.395Z,288.17
2019-04-07T01:15:56.058Z,288.08
2019-04-07T01:16:56.177Z,288.10
2019-04-07T01:17:56.280Z,287.76
2019-04-07T01:18:56.948Z,288.35
2019-04-07T01:19:57.043Z,288.03
2019-04-07T01:20:57.379Z,288.30
2019-04-07T01:21:57.758Z,287.37
2019-04-07T01:22:58.199Z,288.17
2019-04-07T01:23:59.048Z,288.14
2019-04-07T01:24:59.349Z,288.31
2019-04-07T01:25:59.177Z,287.74
2019-04-07T01:27:00.168Z,287.84
2019-04-07T01:27:59.919Z,287.71
2019-04-07T01:29:00.288Z,287.80
2019-04-07T01:30:00.769Z,287.43
2019-04-07T01:31:01.126Z,288.18
2019-04-07T01:32:01.385Z,287.95
2019-04-07T01:33:02.187Z,287.49
2019-04-07T01:34:02.153Z,287.88
2019-04-07T01:35:02.520Z,288.06
2019-04-07T01:36:02.834Z,287.52
2019-04-07T01:37:03.525Z,288.11
2019-04-07T01:38:03.570Z,287.82
2019-04-07T01:39:04.067Z,288.04
2019-04-07T01:40:04.500Z,287.65
2019-04-07T01:41:04.788Z,288.08
2019-04-07T01:42:05.075Z,287.85
2019-04-07T01:43:05.375Z,288.12
2019-04-07T01:44:06.014Z,288.54
2019-04-07T01:45:06.139Z,287.70
2019-04-07T01:46:06.448Z,288.00
2019-04-07T01:47:06.878Z,288.04
2019-04-07T01:48:07.228Z,287.67
2019-04-07T01:49:09.343Z,287.70
2019-04-07T01:50:07.898Z,287.32
2019-04-07T01:51:08.273Z,288.03
2019-04-07T01:52:08.607Z,287.58
2019-04-07T01:53:09.001Z,288.20
2019-04-07T01:54:10.108Z,287.77
2019-04-07T01:55:10.133Z,287.95
2019-04-07T01:56:10.765Z,287.53
2019-04-07T01:57:10.408Z,287.80
2019-04-07T01:58:10.833Z,288.01
2019-04-07T01:59:11.961Z,288.18
2019-04-07T02:00:11.504Z,287.94
2019-04-07T02:01:12.038Z,287.93
2019-04-07T02:02:12.532Z,287.77
2019-04-07T02:03:12.593Z,287.88
2019-04-07T02:04:13.067Z,287.89
2019-04-07T02:05:13.439Z,288.31
2019-04-07T02:06:13.679Z,288.74
2019-04-07T02:07:14.027Z,287.58
2019-04-07T02:08:14.538Z,288.12
2019-04-07T02:09:14.754Z,287.92
2019-04-07T02:10:15.186Z,287.67
2019-04-07T02:11:15.488Z,288.08
2019-04-07T02:12:15.945Z,287.82
2019-04-07T02:13:16.480Z,288.02
2019-04-07T02:14:16.552Z,288.00
2019-04-07T02:15:17.397Z,287.77
2019-04-07T02:16:17.273Z,287.83
2019-04-07T02:17:17.615Z,288.22
2019-04-07T02:18:18.000Z,287.63
2019-04-07T02:19:19.014Z,287.92
2019-04-07T02:20:18.990Z,288.13
2019-04-07T02:21:19.660Z,288.41
2019-04-07T02:22:20.075Z,288.61
2019-04-07T02:23:19.788Z,288.27
2019-04-07T02:24:20.282Z,288.36
2019-04-07T02:25:20.708Z,288.08
2019-04-07T02:26:21.472Z,288.13
2019-04-07T02:27:21.200Z,287.88
2019-04-07T02:28:21.845Z,287.91
2019-04-07T02:29:21.981Z,287.73
2019-04-07T02:30:22.297Z,288.06
2019-04-07T02:31:23.472Z,287.74
2019-04-07T02:32:23.006Z,288.36
2019-04-07T02:33:24.260Z,287.88
2019-04-07T02:34:23.745Z,287.99
2019-04-07T02:35:24.622Z,288.26
2019-04-07T02:36:27.446Z,287.78
2019-04-07T02:37:26.609Z,288.01
2019-04-07T02:38:25.406Z,288.01
2019-04-07T02:39:25.557Z,288.07
2019-04-07T02:40:26.743Z,288.38
2019-04-07T02:41:27.417Z,288.50
2019-04-07T02:42:26.695Z,288.56
2019-04-07T02:43:27.415Z,289.35
2019-04-07T02:44:27.393Z,289.38
2019-04-07T02:45:28.287Z,289.49
2019-04-07T02:46:28.053Z,289.52
2019-04-07T02:47:28.392Z,289.32
2019-04-07T02:48:28.777Z,289.49
2019-04-07T02:49:29.174Z,289.39
2019-04-07T02:50:30.184Z,289.85
2019-04-07T02:51:29.899Z,290.04
2019-04-07T02:52:30.497Z,290.01
2019-04-07T02:53:30.780Z,290.29
2019-04-07T02:54:30.976Z,290.75
2019-04-07T02:55:31.292Z,290.49
2019-04-07T02:56:32.492Z,289.64
2019-04-07T02:57:32.054Z,290.34
2019-04-07T02:58:32.698Z,290.25
2019-04-07T02:59:33.457Z,289.34
2019-04-07T03:00:33.168Z,290.88
2019-04-07T03:01:33.519Z,291.23
2019-04-07T03:02:34.598Z,292.00
2019-04-07T03:03:34.366Z,291.06
2019-04-07T03:04:34.576Z,291.04
2019-04-07T03:05:34.892Z,290.94
2019-04-07T03:06:42.701Z,289.93
2019-04-07T03:07:36.620Z,290.03
2019-04-07T03:08:35.981Z,289.69
2019-04-07T03:09:36.549Z,288.65
2019-04-07T03:10:36.722Z,289.13
2019-04-07T03:11:37.328Z,289.33
2019-04-07T03:12:37.658Z,289.82
2019-04-07T03:13:38.128Z,288.94
2019-04-07T03:14:39.149Z,289.69
2019-04-07T03:15:38.803Z,289.64
2019-04-07T03:16:39.461Z,289.05
2019-04-07T03:17:39.240Z,289.02
2019-04-07T03:18:39.709Z,288.82
2019-04-07T03:19:39.979Z,288.84
2019-04-07T03:20:40.345Z,288.61
2019-04-07T03:21:40.666Z,289.03
2019-04-07T03:22:41.876Z,289.19
2019-04-07T03:23:41.577Z,288.73
2019-04-07T03:24:42.306Z,288.73
2019-04-07T03:25:42.264Z,288.84
2019-04-07T03:26:42.659Z,288.83
2019-04-07T03:27:42.827Z,288.49
2019-04-07T03:28:43.854Z,288.59
2019-04-07T03:29:43.582Z,288.06
2019-04-07T03:30:45.076Z,288.06
2019-04-07T03:31:45.869Z,288.57
2019-04-07T03:32:45.820Z,288.31
2019-04-07T03:33:45.985Z,288.44
2019-04-07T03:34:46.643Z,288.18
2019-04-07T03:35:47.409Z,288.71
2019-04-07T03:37:12.850Z,288.70
2019-04-07T03:37:48.368Z,288.15
2019-04-07T03:38:46.777Z,288.28
2019-04-07T03:39:47.188Z,288.14
2019-04-07T03:40:48.140Z,288.09
2019-04-07T03:41:47.890Z,288.49
2019-04-07T03:42:48.258Z,288.10
2019-04-07T03:43:49.439Z,288.69
2019-04-07T03:44:49.126Z,288.50
2019-04-07T03:45:49.874Z,288.44
2019-04-07T03:46:49.801Z,288.91
2019-04-07T03:47:50.430Z,288.48
2019-04-07T03:48:50.873Z,288.88
2019-04-07T03:49:50.933Z,288.18
2019-04-07T03:50:51.145Z,288.65
2019-04-07T03:51:51.632Z,288.16
2019-04-07T03:52:51.891Z,288.79
2019-04-07T03:53:52.255Z,288.85
2019-04-07T03:54:52.754Z,287.73
2019-04-07T03:55:53.426Z,288.73
2019-04-07T03:56:53.353Z,288.51
2019-04-07T03:57:54.798Z,288.49
2019-04-07T03:58:54.091Z,288.05
2019-04-07T03:59:55.442Z,288.58
2019-04-07T04:00:55.115Z,288.24
2019-04-07T04:01:55.156Z,288.73
2019-04-07T04:02:55.534Z,288.67
2019-04-07T04:03:56.646Z,288.55
2019-04-07T04:04:56.281Z,288.45
2019-04-07T04:05:57.215Z,288.63
2019-04-07T04:06:56.983Z,288.94
2019-04-07T04:07:57.432Z,288.42
2019-04-07T04:08:58.542Z,288.53
2019-04-07T04:09:58.271Z,288.95
2019-04-07T04:10:58.367Z,289.24
2019-04-07T04:11:58.752Z,288.39
2019-04-07T04:12:59.127Z,288.59
2019-04-07T04:13:59.476Z,289.05
2019-04-07T04:15:00.158Z,288.72
2019-04-07T04:16:00.870Z,288.53
2019-04-07T04:17:00.525Z,288.84
2019-04-07T04:18:01.135Z,288.36
2019-04-07T04:19:02.366Z,288.55
2019-04-07T04:20:01.745Z,288.51
2019-04-07T04:21:01.979Z,288.20
2019-04-07T04:22:02.346Z,288.42
2019-04-07T04:23:02.700Z,288.53
2019-04-07T04:24:04.067Z,289.04
2019-04-07T04:25:03.486Z,288.46
2019-04-07T04:26:04.342Z,288.67
2019-04-07T04:27:04.558Z,288.65
2019-04-07T04:28:04.947Z,288.25
2019-04-07T04:29:05.634Z,288.08
2019-04-07T04:30:05.267Z,288.33
2019-04-07T04:31:06.625Z,288.79
2019-04-07T04:32:06.015Z,288.95
2019-04-07T04:33:06.451Z,288.59
2019-04-07T04:34:06.753Z,288.87
2019-04-07T04:35:07.093Z,288.83
2019-04-07T04:36:08.094Z,288.67
2019-04-07T04:37:08.044Z,288.61
2019-04-07T04:38:08.213Z,288.28
2019-04-07T04:39:08.504Z,288.88
2019-04-07T04:40:09.311Z,288.99
2019-04-07T04:41:10.052Z,288.78
2019-04-07T04:42:10.341Z,288.69
2019-04-07T04:43:10.383Z,288.87
2019-04-07T04:44:10.300Z,289.30
2019-04-07T04:45:10.698Z,289.76
2019-04-07T04:46:12.162Z,290.92
2019-04-07T04:47:12.273Z,290.68
2019-04-07T04:48:11.969Z,290.18
2019-04-07T04:49:12.497Z,289.55
2019-04-07T04:50:12.836Z,289.25
2019-04-07T04:51:13.075Z,289.25
2019-04-07T04:52:13.605Z,288.98
2019-04-07T04:53:13.570Z,289.28
2019-04-07T04:54:14.485Z,289.45
2019-04-07T04:55:14.293Z,291.38
2019-04-07T04:56:14.685Z,292.75
2019-04-07T04:57:15.046Z,290.80
2019-04-07T04:58:15.408Z,290.10
2019-04-07T04:59:15.717Z,290.87
2019-04-07T05:00:16.083Z,290.13
2019-04-07T05:01:16.447Z,291.50
2019-04-07T05:02:17.080Z,291.53
2019-04-07T05:03:17.988Z,290.82
2019-04-07T05:04:17.738Z,291.38
2019-04-07T05:05:18.156Z,291.75
2019-04-07T05:06:18.352Z,291.58
2019-04-07T05:07:18.967Z,291.28
2019-04-07T05:08:18.983Z,290.48
2019-04-07T05:09:20.033Z,290.23
2019-04-07T05:10:19.719Z,290.90
2019-04-07T05:11:20.079Z,289.20
2019-04-07T05:12:20.931Z,289.14
2019-04-07T05:13:21.371Z,288.92
2019-04-07T05:14:21.979Z,289.32
2019-04-07T05:15:21.533Z,288.40
2019-04-07T05:16:21.887Z,288.33
2019-04-07T05:17:22.228Z,288.97
2019-04-07T05:18:22.703Z,288.23
2019-04-07T05:19:23.684Z,288.76
2019-04-07T05:20:23.950Z,288.79
2019-04-07T05:21:23.991Z,288.70
2019-04-07T05:22:24.130Z,289.26
2019-04-07T05:23:24.387Z,288.50
2019-04-07T05:24:24.783Z,289.30
2019-04-07T05:25:25.123Z,289.26
2019-04-07T05:26:25.587Z,288.63
2019-04-07T05:27:25.827Z,288.72
2019-04-07T05:28:26.619Z,288.45
2019-04-07T05:29:26.522Z,288.61
2019-04-07T05:30:27.030Z,288.66
2019-04-07T05:31:27.263Z,288.55
2019-04-07T05:32:27.625Z,288.17
2019-04-07T05:33:27.999Z,288.49
2019-04-07T05:34:28.349Z,288.17
2019-04-07T05:35:28.703Z,288.46
2019-04-07T05:36:29.074Z,288.48
2019-04-07T05:37:29.554Z,289.36
2019-04-07T05:38:30.246Z,289.86
2019-04-07T05:39:30.858Z,289.92
2019-04-07T05:40:31.047Z,289.23
2019-04-07T05:41:31.221Z,288.68
2019-04-07T05:42:31.227Z,288.73
2019-04-07T05:43:31.608Z,288.60
2019-04-07T05:44:32.238Z,287.92
2019-04-07T05:45:33.572Z,288.22
2019-04-07T05:46:33.509Z,287.86
2019-04-07T05:47:33.133Z,288.63
2019-04-07T05:48:33.756Z,288.30
2019-04-07T05:49:33.747Z,288.17
2019-04-07T05:50:34.883Z,287.25
2019-04-07T05:51:34.488Z,288.18
2019-04-07T05:52:37.838Z,287.98
2019-04-07T05:53:35.212Z,288.10
2019-04-07T05:54:36.142Z,287.88
2019-04-07T05:55:36.079Z,287.79
2019-04-07T05:56:36.827Z,288.01
2019-04-07T05:57:36.610Z,288.11
2019-04-07T05:58:38.373Z,287.91
2019-04-07T05:59:37.644Z,288.83
2019-04-07T06:00:38.397Z,288.44
2019-04-07T06:01:38.105Z,288.25
2019-04-07T06:02:38.434Z,288.40
2019-04-07T06:03:41.204Z,288.56
2019-04-07T06:04:39.408Z,288.39
2019-04-07T06:05:40.005Z,288.46
2019-04-07T06:06:41.527Z,288.03
2019-04-07T06:07:40.245Z,288.47
2019-04-07T06:08:41.101Z,287.90
2019-04-07T06:09:41.445Z,288.60
2019-04-07T06:10:41.376Z,288.05
2019-04-07T06:11:41.749Z,287.79
2019-04-07T06:12:44.941Z,288.14
2019-04-07T06:13:43.881Z,288.49
2019-04-07T06:14:45.887Z,287.49
2019-04-07T06:15:43.129Z,287.64
2019-04-07T06:16:43.584Z,287.80
2019-04-07T06:17:43.852Z,287.78
2019-04-07T06:18:44.474Z,287.26
2019-04-07T06:19:44.633Z,287.71
2019-04-07T06:20:46.374Z,287.34
2019-04-07T06:21:46.880Z,287.18
2019-04-07T06:22:46.828Z,287.36
2019-04-07T06:23:46.058Z,287.48
2019-04-07T06:24:47.109Z,287.73
2019-04-07T06:25:46.803Z,287.70
2019-04-07T06:26:48.123Z,287.42
2019-04-07T06:27:47.758Z,287.74
2019-04-07T06:28:51.161Z,287.93
2019-04-07T06:29:48.880Z,287.56
2019-04-07T06:30:48.696Z,288.04
2019-04-07T06:31:49.494Z,287.60
2019-04-07T06:32:49.327Z,287.57
2019-04-07T06:33:49.871Z,287.60
2019-04-07T06:34:50.679Z,287.23
2019-04-07T06:35:53.104Z,287.95
2019-04-07T06:36:53.594Z,287.56
2019-04-07T06:37:51.954Z,287.45
2019-04-07T06:38:52.614Z,287.85
2019-04-07T06:39:52.473Z,287.63
2019-04-07T06:40:54.227Z,288.03
2019-04-07T06:41:52.575Z,287.85
2019-04-07T06:42:53.316Z,287.38
2019-04-07T06:43:54.202Z,287.83
2019-04-07T06:44:55.382Z,287.94
2019-04-07T06:45:54.882Z,287.43
2019-04-07T06:46:57.664Z,287.34
2019-04-07T06:47:55.205Z,287.56
2019-04-07T06:48:55.152Z,288.12
2019-04-07T06:49:55.450Z,287.77
2019-04-07T06:50:58.913Z,287.99
2019-04-07T06:51:56.171Z,287.80
2019-04-07T06:52:56.641Z,288.09
2019-04-07T06:53:56.966Z,287.92
2019-04-07T06:54:57.233Z,287.49
2019-04-07T06:55:59.448Z,288.31
2019-04-07T06:56:57.959Z,287.81
2019-04-07T06:57:58.325Z,287.86
2019-04-07T06:58:59.162Z,287.95
2019-04-07T06:59:59.019Z,288.01
2019-04-07T07:01:02.155Z,287.73
2019-04-07T07:01:59.863Z,287.75
2019-04-07T07:03:02.917Z,287.75
2019-04-07T07:04:00.484Z,287.61
2019-04-07T07:05:00.835Z,287.82
2019-04-07T07:06:01.333Z,288.22
2019-04-07T07:07:02.331Z,288.36
2019-04-07T07:08:02.002Z,288.13
2019-04-07T07:09:02.941Z,288.32
2019-04-07T07:10:03.269Z,288.22
2019-04-07T07:11:03.088Z,287.66
2019-04-07T07:12:03.950Z,287.95
2019-04-07T07:13:07.599Z,288.06
2019-04-07T07:14:05.064Z,288.36
2019-04-07T07:15:04.628Z,288.43
2019-04-07T07:16:07.960Z,288.74
2019-04-07T07:17:06.324Z,288.48
2019-04-07T07:18:05.632Z,289.15
2019-04-07T07:19:06.351Z,288.38
2019-04-07T07:20:06.737Z,287.89
2019-04-07T07:21:06.874Z,288.27
2019-04-07T07:22:10.039Z,287.98
2019-04-07T07:23:09.912Z,288.24
2019-04-07T07:24:07.710Z,288.61
2019-04-07T07:25:10.245Z,287.96
2019-04-07T07:26:09.086Z,287.92
2019-04-07T07:27:10.313Z,287.78
2019-04-07T07:28:11.436Z,288.51
2019-04-07T07:29:09.499Z,288.20
2019-04-07T07:30:10.594Z,287.99
2019-04-07T07:31:10.239Z,288.15
2019-04-07T07:32:10.571Z,288.30
2019-04-07T07:33:11.168Z,288.20
2019-04-07T07:34:11.815Z,287.60
2019-04-07T07:35:13.659Z,287.88
2019-04-07T07:36:12.389Z,288.01
2019-04-07T07:37:12.667Z,288.04
2019-04-07T07:38:12.788Z,287.72
2019-04-07T07:39:13.879Z,289.03
2019-04-07T07:40:15.449Z,287.48
2019-04-07T07:41:14.085Z,288.10
2019-04-07T07:42:14.737Z,288.01
2019-04-07T07:43:14.797Z,287.74
2019-04-07T07:44:15.543Z,287.90
2019-04-07T07:45:15.559Z,287.96
2019-04-07T07:46:17.849Z,287.89
2019-04-07T07:47:17.618Z,287.79
2019-04-07T07:48:16.412Z,288.24
2019-04-07T07:49:16.846Z,287.93
2019-04-07T07:50:17.845Z,287.59
2019-04-07T07:51:17.543Z,288.23
2019-04-07T07:52:20.439Z,288.26
2019-04-07T07:53:19.170Z,288.36
2019-04-07T07:54:18.510Z,288.02
2019-04-07T07:55:19.683Z,287.43
2019-04-07T07:56:19.286Z,287.52
2019-04-07T07:57:21.915Z,287.67
2019-04-07T07:58:20.351Z,287.57
2019-04-07T07:59:20.424Z,287.90
2019-04-07T08:00:21.022Z,287.33
2019-04-07T08:01:21.121Z,287.31
2019-04-07T08:02:21.916Z,287.85
2019-04-07T08:03:22.903Z,288.19
2019-04-07T08:04:24.897Z,287.52
2019-04-07T08:05:22.810Z,287.09
2019-04-07T08:06:22.862Z,286.59
2019-04-07T08:07:23.632Z,286.69
2019-04-07T08:08:23.586Z,286.34
2019-04-07T08:09:25.885Z,287.20
2019-04-07T08:10:25.077Z,287.78
2019-04-07T08:11:25.031Z,287.42
2019-04-07T08:12:25.499Z,287.06
2019-04-07T08:13:25.813Z,286.38
2019-04-07T08:14:26.021Z,287.64
2019-04-07T08:15:29.182Z,286.99
2019-04-07T08:16:30.331Z,287.03
2019-04-07T08:17:27.083Z,287.43
2019-04-07T08:18:27.191Z,287.62
2019-04-07T08:19:29.379Z,286.96
2019-04-07T08:20:28.535Z,287.58
2019-04-07T08:21:29.089Z,287.11
2019-04-07T08:22:32.502Z,286.86
2019-04-07T08:23:30.724Z,286.64
2019-04-07T08:24:29.447Z,286.77
2019-04-07T08:25:30.248Z,286.21
2019-04-07T08:26:30.115Z,286.50
2019-04-07T08:27:31.967Z,286.63
2019-04-07T08:28:33.486Z,286.50
2019-04-07T08:29:31.166Z,287.10
2019-04-07T08:30:31.785Z,286.05
2019-04-07T08:31:32.628Z,286.38
2019-04-07T08:32:33.187Z,285.49
2019-04-07T08:33:33.184Z,286.08
2019-04-07T08:34:33.102Z,285.97
2019-04-07T08:35:35.679Z,285.69
2019-04-07T08:36:34.773Z,286.33
2019-04-07T08:37:34.182Z,285.81
2019-04-07T08:38:34.431Z,286.70
2019-04-07T08:39:35.480Z,285.95
2019-04-07T08:40:36.472Z,286.11
2019-04-07T08:41:39.162Z,287.10
2019-04-07T08:42:36.942Z,287.16
2019-04-07T08:43:36.275Z,287.12
2019-04-07T08:44:36.733Z,286.38
2019-04-07T08:45:37.111Z,285.99
2019-04-07T08:46:40.124Z,286.82
2019-04-07T08:47:38.093Z,288.34
2019-04-07T08:48:38.743Z,287.49
2019-04-07T08:49:38.359Z,287.78
2019-04-07T08:50:38.710Z,286.96
2019-04-07T08:51:39.421Z,286.64
2019-04-07T08:52:41.935Z,286.93
2019-04-07T08:53:43.449Z,286.93
2019-04-07T08:54:40.182Z,286.44
2019-04-07T08:55:40.634Z,285.99
2019-04-07T08:56:40.937Z,285.00
2019-04-07T08:57:41.352Z,286.51
2019-04-07T08:58:42.475Z,287.77
2019-04-07T08:59:43.032Z,285.02
2019-04-07T09:00:42.675Z,285.81
2019-04-07T09:01:43.439Z,284.92
2019-04-07T09:02:43.770Z,284.52
2019-04-07T09:03:43.903Z,286.99
2019-04-07T09:04:44.371Z,285.41
2019-04-07T09:05:44.441Z,285.31
2019-04-07T09:06:44.944Z,285.78
2019-04-07T09:07:44.858Z,284.33
2019-04-07T09:08:46.105Z,284.38
2019-04-07T09:09:47.411Z,285.28
2019-04-07T09:10:49.053Z,286.94
2019-04-07T09:11:46.985Z,285.00
2019-04-07T09:12:46.673Z,285.68
2019-04-07T09:13:47.573Z,284.91
2019-04-07T09:14:47.392Z,285.39
2019-04-07T09:15:48.839Z,286.42
2019-04-07T09:16:51.825Z,289.29
2019-04-07T09:17:48.691Z,287.81
2019-04-07T09:18:54.322Z,285.65
2019-04-07T09:19:50.840Z,285.30
2019-04-07T09:20:49.576Z,285.78
2019-04-07T09:21:51.640Z,285.18
2019-04-07T09:22:52.384Z,285.81
2019-04-07T09:23:50.742Z,286.59
2019-04-07T09:24:50.988Z,285.27
2019-04-07T09:25:51.362Z,285.59
2019-04-07T09:26:52.381Z,284.97
2019-04-07T09:27:52.274Z,284.78
2019-04-07T09:28:53.980Z,285.32
2019-04-07T09:29:53.408Z,285.12
2019-04-07T09:30:53.653Z,285.24
2019-04-07T09:31:54.072Z,285.93
2019-04-07T09:32:54.581Z,284.93
2019-04-07T09:33:55.004Z,282.68
2019-04-07T09:34:56.078Z,285.15
2019-04-07T09:35:56.680Z,285.27
2019-04-07T09:36:55.670Z,283.63
2019-04-07T09:37:55.951Z,284.16
2019-04-07T09:38:57.996Z,284.26
2019-04-07T09:40:00.793Z,283.79
2019-04-07T09:40:58.409Z,285.84
2019-04-07T09:41:57.264Z,284.31
2019-04-07T09:42:59.264Z,284.60
2019-04-07T09:44:01.049Z,283.98
2019-04-07T09:44:58.574Z,284.56
2019-04-07T09:45:59.395Z,284.34
2019-04-07T09:46:59.594Z,282.62
2019-04-07T09:47:59.856Z,285.41
2019-04-07T09:48:59.942Z,284.91
2019-04-07T09:50:00.479Z,285.41
2019-04-07T09:51:03.994Z,285.62
2019-04-07T09:52:02.506Z,281.39
2019-04-07T09:53:01.125Z,284.93
2019-04-07T09:54:01.501Z,282.59
2019-04-07T09:55:01.944Z,282.76
2019-04-07T09:56:02.730Z,285.91
2019-04-07T09:57:05.662Z,283.81
2019-04-07T09:58:02.919Z,286.89
2019-04-07T09:59:03.579Z,285.00
2019-04-07T10:00:03.690Z,283.44
2019-04-07T10:01:06.122Z,284.80
2019-04-07T10:02:05.889Z,284.70
2019-04-07T10:03:07.805Z,282.97
2019-04-07T10:04:07.081Z,285.59
2019-04-07T10:05:05.466Z,284.27
2019-04-07T10:06:09.807Z,285.20
2019-04-07T10:07:09.087Z,284.70
2019-04-07T10:08:07.308Z,285.14
2019-04-07T10:09:06.900Z,285.58
2019-04-07T10:10:12.441Z,284.92
2019-04-07T10:11:08.661Z,285.46
2019-04-07T10:12:08.192Z,284.78
2019-04-07T10:13:08.353Z,285.09
2019-04-07T10:14:08.717Z,286.55
2019-04-07T10:15:11.601Z,284.08
2019-04-07T10:16:10.656Z,284.86
2019-04-07T10:17:10.725Z,284.74
2019-04-07T10:18:10.223Z,282.04
2019-04-07T10:19:10.954Z,283.61
2019-04-07T10:20:11.223Z,283.53
2019-04-07T10:21:11.250Z,282.48
2019-04-07T10:22:12.338Z,282.58
2019-04-07T10:23:11.972Z,283.87
2019-04-07T10:24:13.009Z,285.09
2019-04-07T10:25:12.702Z,282.39
2019-04-07T10:26:13.103Z,283.10
2019-04-07T10:27:13.472Z,289.28
2019-04-07T10:28:13.890Z,277.92
2019-04-07T10:29:14.135Z,281.14
2019-04-07T10:30:14.666Z,284.20
2019-04-07T10:31:18.356Z,282.98
2019-04-07T10:32:15.246Z,281.80
2019-04-07T10:33:15.749Z,286.60
2019-04-07T10:34:16.194Z,283.77
2019-04-07T10:35:16.803Z,282.14
2019-04-07T10:36:16.710Z,282.99
2019-04-07T10:37:17.023Z,284.55
2019-04-07T10:38:17.402Z,283.90
2019-04-07T10:39:18.607Z,283.05
2019-04-07T10:40:20.928Z,284.63
2019-04-07T10:41:18.483Z,285.34
2019-04-07T10:42:19.113Z,281.28
2019-04-07T10:43:19.610Z,285.22
2019-04-07T10:44:19.615Z,282.51
2019-04-07T10:45:20.659Z,283.07
2019-04-07T10:46:20.373Z,284.38
2019-04-07T10:47:21.193Z,283.27
2019-04-07T10:48:21.012Z,285.63
2019-04-07T10:49:21.373Z,283.73
2019-04-07T10:50:22.160Z,294.61
2019-04-07T10:51:22.954Z,293.01
2019-04-07T10:52:22.468Z,293.70
2019-04-07T10:53:22.912Z,291.00
2019-04-07T10:54:23.397Z,288.70
2019-04-07T10:55:24.155Z,288.17
2019-04-07T10:56:24.264Z,285.53
2019-04-07T10:57:24.250Z,286.56
2019-04-07T10:58:24.807Z,287.87
2019-04-07T10:59:25.603Z,282.59
2019-04-07T11:00:25.815Z,283.67
2019-04-07T11:01:25.775Z,284.08
2019-04-07T11:02:26.860Z,286.49
2019-04-07T11:03:26.445Z,284.08
2019-04-07T11:04:27.326Z,284.91
2019-04-07T11:05:27.911Z,284.38
2019-04-07T11:06:28.309Z,284.21
2019-04-07T11:07:28.201Z,286.27
2019-04-07T11:08:28.737Z,284.12
2019-04-07T11:09:28.680Z,284.78
2019-04-07T11:10:34.482Z,283.76
2019-04-07T11:11:30.383Z,283.34
2019-04-07T11:12:30.330Z,284.61
2019-04-07T11:13:30.780Z,283.66
2019-04-07T11:14:30.400Z,284.20
2019-04-07T11:15:30.781Z,284.04
2019-04-07T11:16:31.289Z,286.12
2019-04-07T11:17:31.605Z,284.98
2019-04-07T11:18:32.504Z,285.33
2019-04-07T11:19:32.287Z,282.86
2019-04-07T11:20:32.567Z,284.36
2019-04-07T11:21:33.755Z,287.61
2019-04-07T11:22:36.014Z,285.23
2019-04-07T11:23:33.622Z,283.51
2019-04-07T11:24:35.072Z,286.17
2019-04-07T11:25:34.683Z,282.77
2019-04-07T11:26:35.280Z,281.74
2019-04-07T11:27:35.399Z,283.46
2019-04-07T11:28:35.444Z,286.41
2019-04-07T11:29:37.633Z,284.05
2019-04-07T11:30:36.182Z,281.05
2019-04-07T11:31:36.913Z,286.10
2019-04-07T11:32:36.960Z,284.60
2019-04-07T11:33:37.980Z,286.60
2019-04-07T11:34:37.686Z,286.60
2019-04-07T11:35:37.961Z,281.38
2019-04-07T11:36:38.551Z,286.33
2019-04-07T11:37:38.712Z,286.37
2019-04-07T11:38:39.079Z,284.61
2019-04-07T11:39:39.389Z,284.36
2019-04-07T11:40:45.780Z,283.75
2019-04-07T11:41:41.310Z,282.42
2019-04-07T11:42:41.540Z,282.09
2019-04-07T11:43:40.919Z,284.61
2019-04-07T11:44:41.244Z,283.44
2019-04-07T11:45:52.867Z,284.91
2019-04-07T11:46:43.182Z,286.45
2019-04-07T11:47:42.734Z,286.04
2019-04-07T11:48:43.235Z,285.74
2019-04-07T11:49:44.637Z,286.62
2019-04-07T11:50:43.423Z,284.94
2019-04-07T11:51:44.252Z,286.14
2019-04-07T11:52:44.122Z,282.40
2019-04-07T11:53:44.479Z,285.10
2019-04-07T11:54:44.972Z,282.48
2019-04-07T11:55:45.423Z,280.21
2019-04-07T11:56:46.025Z,282.76
2019-04-07T11:57:45.940Z,284.53
2019-04-07T11:58:46.380Z,283.15
2019-04-07T11:59:46.614Z,285.26
2019-04-07T12:00:47.352Z,284.43
2019-04-07T12:01:47.955Z,285.56
2019-04-07T12:02:49.246Z,286.92
2019-04-07T12:03:48.107Z,284.83
2019-04-07T12:04:48.892Z,282.72
2019-04-07T12:05:49.527Z,284.81
2019-04-07T12:06:49.796Z,285.69
2019-04-07T12:07:52.955Z,284.59
2019-04-07T12:08:51.122Z,283.48
2019-04-07T12:09:50.967Z,286.21
2019-04-07T12:10:59.397Z,282.60
2019-04-07T12:11:52.633Z,283.97
2019-04-07T12:12:51.335Z,286.13
2019-04-07T12:13:52.544Z,286.50
2019-04-07T12:14:53.511Z,282.01
2019-04-07T12:15:55.205Z,282.50
2019-04-07T12:16:53.480Z,286.42
2019-04-07T12:17:53.482Z,284.92
2019-04-07T12:18:54.469Z,284.59
2019-04-07T12:19:55.114Z,282.32
2019-04-07T12:20:54.323Z,284.43
2019-04-07T12:21:54.692Z,284.39
2019-04-07T12:22:55.002Z,281.87
2019-04-07T12:23:55.472Z,281.30
2019-04-07T12:24:57.541Z,279.40
2019-04-07T12:25:56.677Z,284.52
2019-04-07T12:26:56.703Z,285.28
2019-04-07T12:27:56.808Z,285.48
2019-04-07T12:28:57.959Z,282.47
2019-04-07T12:29:58.160Z,281.27
2019-04-07T12:30:57.889Z,282.26
2019-04-07T12:31:58.281Z,282.42
2019-04-07T12:32:58.653Z,284.46